Terminal Aerodrome Forecast
Issued by NWS

Current Version | Previous Version | Text Only | Print | Product List | Glossary On
Versions: 1 2 3 4 5 6 7 8 9 10 11 12 13 14 15 16
000
FTUS46 KMFR 170500 RRA
TAFLMT
TAF
KLMT 170544Z 1706/1806 15003KT P6SM SKC
     FM171800 19015G22KT P6SM BKN080 OVC150
     FM180400 18007KT P6SM OVC150=

USA.gov is the U.S. government's official web portal to all federal, state and local government web resources and services.